Time;durP1;ratioP1;P1;durP2;ratioP2;P2;SDS_P1;SDS_P2;PMS_P1;PMS_P2;Temp;Humidity;BMP_temperature;BMP_pressure;BME280_temperature;BME280_humidity;BME280_pressure;Samples;Min_cycle;Max_cycle;Signal;HPM_P1;HPM_P2
2023/07/28 00:02:06;;;;;;;45.13;17.90;;;17.80;99.90;;;;;;5065284;28;20052;-66
2023/07/28 00:04:35;;;;;;;55.60;18.65;;;17.80;99.90;;;;;;5066400;28;20098;-69
2023/07/28 00:07:00;;;;;;;45.53;15.95;;;17.80;99.90;;;;;;5065929;28;20055;-70
2023/07/28 00:09:26;;;;;;;44.47;16.42;;;17.80;99.90;;;;;;5048154;28;20511;-70
2023/07/28 00:11:51;;;;;;;49.42;17.13;;;17.80;99.90;;;;;;5046948;28;20048;-65
2023/07/28 00:14:17;;;;;;;40.53;16.20;;;17.80;99.90;;;;;;5048443;28;20052;-68
2023/07/28 00:16:43;;;;;;;46.10;17.52;;;17.80;99.90;;;;;;5048033;28;20043;-67
2023/07/28 00:19:08;;;;;;;38.05;17.27;;;17.80;99.90;;;;;;5046813;28;20044;-67
2023/07/28 00:21:34;;;;;;;40.05;16.90;;;17.80;99.90;;;;;;5062493;28;20048;-68
2023/07/28 00:23:59;;;;;;;40.75;16.73;;;17.80;99.90;;;;;;5048610;28;20079;-68
2023/07/28 00:26:25;;;;;;;41.22;16.10;;;17.80;99.90;;;;;;5046064;28;20032;-67
2023/07/28 00:28:51;;;;;;;42.90;17.33;;;17.80;99.90;;;;;;5044147;28;20102;-67
2023/07/28 00:31:16;;;;;;;37.85;16.92;;;17.80;99.90;;;;;;5037402;28;20036;-68
2023/07/28 00:33:42;;;;;;;39.40;16.55;;;17.80;99.90;;;;;;5028370;28;20380;-64
2023/07/28 00:36:07;;;;;;;42.22;16.60;;;17.80;99.90;;;;;;5046521;28;20033;-66
2023/07/28 00:38:33;;;;;;;41.13;15.73;;;17.80;99.90;;;;;;5035298;28;20281;-68
2023/07/28 00:40:59;;;;;;;40.55;16.60;;;17.80;99.90;;;;;;5064018;28;20454;-66
2023/07/28 00:43:24;;;;;;;37.92;15.70;;;17.80;99.90;;;;;;5048054;28;20413;-71
2023/07/28 00:45:50;;;;;;;38.03;16.35;;;17.80;99.90;;;;;;5057263;28;20037;-68
2023/07/28 00:48:16;;;;;;;39.33;16.63;;;17.80;99.90;;;;;;5065437;28;20347;-67
2023/07/28 00:50:44;;;;;;;43.00;17.13;;;17.80;99.90;;;;;;5046519;28;20040;-67
2023/07/28 00:53:10;;;;;;;39.97;16.92;;;17.80;99.90;;;;;;5047714;28;20045;-67
2023/07/28 00:55:37;;;;;;;34.03;17.40;;;17.80;99.90;;;;;;5029087;28;20040;-67
2023/07/28 00:58:03;;;;;;;42.03;17.58;;;17.80;99.90;;;;;;5047174;28;20040;-67
2023/07/28 01:00:28;;;;;;;41.35;17.80;;;17.80;99.90;;;;;;5045875;28;20054;-67
2023/07/28 01:02:55;;;;;;;39.40;18.83;;;17.80;99.90;;;;;;5065448;28;20045;-68
2023/07/28 01:05:28;;;;;;;44.03;18.98;;;17.90;99.90;;;;;;5044587;28;20067;-67
2023/07/28 01:08:06;;;;;;;37.97;18.65;;;17.80;99.90;;;;;;5064051;28;20044;-68
2023/07/28 01:10:32;;;;;;;45.40;19.85;;;17.90;99.90;;;;;;5045680;28;20079;-67
2023/07/28 01:12:59;;;;;;;41.88;18.80;;;17.80;99.90;;;;;;5047575;28;20079;-70
2023/07/28 01:15:25;;;;;;;55.78;20.48;;;17.80;99.90;;;;;;5046877;28;20039;-67
2023/07/28 01:17:51;;;;;;;51.75;21.50;;;17.80;99.90;;;;;;5047186;28;20040;-67
2023/07/28 01:20:17;;;;;;;56.40;21.77;;;17.80;99.90;;;;;;5045601;28;20052;-68
2023/07/28 01:23:08;;;;;;;49.10;21.33;;;17.80;99.90;;;;;;5060501;28;20058;-65
2023/07/28 01:25:47;;;;;;;51.47;21.60;;;17.80;99.90;;;;;;5063305;28;20045;-66
2023/07/28 01:28:15;;;;;;;48.58;21.48;;;17.80;99.90;;;;;;5047031;28;20037;-64
2023/07/28 01:30:40;;;;;;;60.63;22.50;;;17.80;99.90;;;;;;5043020;28;20438;-66
2023/07/28 01:33:07;;;;;;;57.28;21.58;;;17.80;99.90;;;;;;5046288;28;20040;-67
2023/07/28 01:35:33;;;;;;;51.42;21.75;;;17.90;99.90;;;;;;5053555;28;20048;-65
2023/07/28 01:37:58;;;;;;;56.70;21.05;;;17.80;99.90;;;;;;5028899;28;20474;-65
2023/07/28 01:40:24;;;;;;;58.80;23.15;;;17.80;99.90;;;;;;5044386;28;20559;-65
2023/07/28 01:42:49;;;;;;;52.25;21.65;;;17.80;99.90;;;;;;5046136;28;20039;-66
2023/07/28 01:45:15;;;;;;;52.53;22.05;;;17.80;99.90;;;;;;5039048;28;20587;-66
2023/07/28 01:47:41;;;;;;;58.63;22.67;;;17.80;99.90;;;;;;5046759;28;20514;-66
2023/07/28 01:50:06;;;;;;;59.72;22.30;;;17.80;99.90;;;;;;5063176;28;20040;-65
2023/07/28 01:52:32;;;;;;;55.30;23.25;;;17.80;99.90;;;;;;5046084;28;20055;-68
2023/07/28 01:54:58;;;;;;;61.40;23.10;;;17.80;99.90;;;;;;5044637;28;20790;-67
2023/07/28 01:57:27;;;;;;;59.28;22.85;;;17.80;99.90;;;;;;5064544;28;20480;-67
2023/07/28 01:59:55;;;;;;;54.47;22.02;;;17.80;99.90;;;;;;5044382;28;20459;-66
2023/07/28 02:02:21;;;;;;;50.97;21.90;;;17.80;99.90;;;;;;5046110;28;20105;-67
2023/07/28 02:04:46;;;;;;;52.28;21.25;;;17.80;99.90;;;;;;5064330;28;20056;-66
2023/07/28 02:07:12;;;;;;;61.45;23.38;;;17.80;99.90;;;;;;5045642;28;20514;-69
2023/07/28 02:09:37;;;;;;;57.20;23.85;;;17.80;99.90;;;;;;5046068;28;20747;-65
2023/07/28 02:12:03;;;;;;;60.95;23.15;;;17.80;99.90;;;;;;5043920;28;20037;-66
2023/07/28 02:14:29;;;;;;;62.78;24.35;;;17.80;99.90;;;;;;5040997;28;20037;-65
2023/07/28 02:16:54;;;;;;;56.90;24.20;;;17.80;99.90;;;;;;5061748;28;20037;-68
2023/07/28 02:19:20;;;;;;;68.00;24.13;;;17.80;99.90;;;;;;5063646;28;20041;-66
2023/07/28 02:21:45;;;;;;;60.58;25.02;;;17.80;99.90;;;;;;5042074;28;20063;-69
2023/07/28 02:24:11;;;;;;;56.10;25.92;;;17.80;99.90;;;;;;5026753;28;20037;-67
2023/07/28 02:26:37;;;;;;;70.40;26.00;;;17.80;99.90;;;;;;5048204;28;20134;-65
2023/07/28 02:29:02;;;;;;;70.82;26.60;;;17.80;99.90;;;;;;5031000;28;20045;-65
2023/07/28 02:31:28;;;;;;;60.40;25.02;;;17.80;99.90;;;;;;5040008;28;20040;-69
2023/07/28 02:33:54;;;;;;;66.45;25.73;;;17.80;99.90;;;;;;5029405;28;20052;-67
2023/07/28 02:36:20;;;;;;;69.18;25.70;;;17.80;99.90;;;;;;5045728;28;20314;-65
2023/07/28 02:38:45;;;;;;;60.78;25.30;;;17.80;99.90;;;;;;5045497;28;20072;-63
2023/07/28 02:41:11;;;;;;;59.80;25.30;;;17.80;99.90;;;;;;5044481;28;20045;-66
2023/07/28 02:43:37;;;;;;;62.30;25.20;;;17.80;99.90;;;;;;5038259;28;20064;-65
2023/07/28 02:46:02;;;;;;;55.80;24.05;;;17.80;99.90;;;;;;5053922;28;20090;-66
2023/07/28 02:48:28;;;;;;;58.15;24.08;;;17.80;99.90;;;;;;5045918;28;20032;-65
2023/07/28 02:50:54;;;;;;;49.65;23.13;;;17.80;99.90;;;;;;5043062;28;20037;-64
2023/07/28 02:53:19;;;;;;;58.35;23.50;;;17.80;99.90;;;;;;5053883;28;20044;-67
2023/07/28 02:55:46;;;;;;;57.53;23.73;;;17.80;99.90;;;;;;5047760;28;20095;-67
2023/07/28 02:58:12;;;;;;;60.33;23.88;;;17.80;99.90;;;;;;5067275;28;20044;-66
2023/07/28 03:00:42;;;;;;;48.33;23.23;;;17.80;99.90;;;;;;5048707;28;20493;-66
2023/07/28 03:03:10;;;;;;;56.72;23.15;;;17.80;99.90;;;;;;5067459;28;20135;-65
2023/07/28 03:05:36;;;;;;;56.55;23.27;;;17.80;99.90;;;;;;5066373;28;20098;-66
2023/07/28 03:08:02;;;;;;;55.33;23.52;;;17.80;99.90;;;;;;5049569;28;20185;-67
2023/07/28 03:10:28;;;;;;;51.53;22.98;;;17.80;99.90;;;;;;5064024;28;20533;-66
2023/07/28 03:12:54;;;;;;;56.53;22.95;;;17.80;99.90;;;;;;5029448;28;20155;-67
2023/07/28 03:15:21;;;;;;;51.10;22.00;;;17.80;99.90;;;;;;5033466;28;20035;-65
2023/07/28 03:17:48;;;;;;;56.13;23.00;;;17.80;99.90;;;;;;5049459;28;20087;-65
2023/07/28 03:20:13;;;;;;;54.30;23.40;;;17.80;99.90;;;;;;5048647;28;20116;-65
2023/07/28 03:22:39;;;;;;;56.92;22.58;;;17.80;99.90;;;;;;5049316;28;20116;-66
2023/07/28 03:25:05;;;;;;;58.10;21.58;;;17.80;99.90;;;;;;5047788;28;20044;-65
2023/07/28 03:27:30;;;;;;;53.65;21.48;;;17.80;99.90;;;;;;5048668;28;20074;-67
2023/07/28 03:29:56;;;;;;;55.88;21.25;;;17.80;99.90;;;;;;5048348;28;20040;-65
2023/07/28 03:32:22;;;;;;;52.28;21.05;;;17.80;99.90;;;;;;5048928;28;20045;-64
2023/07/28 03:34:47;;;;;;;57.70;21.63;;;17.80;99.90;;;;;;5066851;28;20312;-67
2023/07/28 03:37:13;;;;;;;55.13;20.75;;;17.80;99.90;;;;;;5033549;28;20087;-65
2023/07/28 03:39:38;;;;;;;44.70;20.13;;;17.80;99.90;;;;;;5029001;28;20092;-67
2023/07/28 03:42:04;;;;;;;48.38;21.10;;;17.80;99.90;;;;;;5052180;28;20040;-67
2023/07/28 03:44:30;;;;;;;49.88;19.63;;;17.80;99.90;;;;;;5047802;28;20107;-67
2023/07/28 03:46:56;;;;;;;52.67;19.42;;;17.80;99.90;;;;;;5031949;28;20036;-67
2023/07/28 03:49:21;;;;;;;50.63;18.55;;;17.80;99.90;;;;;;5066230;28;20098;-65
2023/07/28 03:51:47;;;;;;;50.55;18.80;;;17.80;99.90;;;;;;5038886;28;20036;-66
2023/07/28 03:54:12;;;;;;;44.47;17.75;;;17.80;99.90;;;;;;5048931;28;20110;-64
2023/07/28 03:56:41;;;;;;;46.83;17.33;;;17.80;99.90;;;;;;5046885;28;20102;-65
2023/07/28 03:59:06;;;;;;;47.30;17.65;;;17.80;99.90;;;;;;5066854;28;20048;-65
2023/07/28 04:01:32;;;;;;;40.80;18.25;;;17.80;99.90;;;;;;5051983;28;20049;-64
2023/07/28 04:03:58;;;;;;;48.05;17.48;;;17.80;99.90;;;;;;5028630;28;20594;-65
2023/07/28 04:06:43;;;;;;;38.92;16.75;;;17.80;99.90;;;;;;5028795;28;20080;-65
2023/07/28 04:09:11;;;;;;;44.92;17.77;;;17.80;99.90;;;;;;5028642;28;20726;-68
2023/07/28 04:11:37;;;;;;;42.05;17.13;;;17.80;99.90;;;;;;5046746;28;20628;-64
2023/07/28 04:14:03;;;;;;;38.83;16.25;;;17.90;99.90;;;;;;5048569;28;20048;-65
2023/07/28 04:16:29;;;;;;;40.05;16.65;;;17.80;99.90;;;;;;5047789;28;20126;-64
2023/07/28 04:18:55;;;;;;;39.60;16.35;;;17.80;99.90;;;;;;5048133;28;20090;-64
2023/07/28 04:21:20;;;;;;;49.40;16.52;;;17.80;99.90;;;;;;5047072;28;20041;-65
2023/07/28 04:23:49;;;;;;;38.28;15.45;;;17.80;99.90;;;;;;5032068;28;20257;-66
2023/07/28 04:26:16;;;;;;;33.70;15.70;;;17.80;99.90;;;;;;5046684;28;20079;-64
2023/07/28 04:28:42;;;;;;;34.13;15.32;;;17.80;99.90;;;;;;5046919;28;20506;-68
2023/07/28 04:31:08;;;;;;;36.35;15.88;;;17.80;99.90;;;;;;5038978;28;20040;-65
2023/07/28 04:33:34;;;;;;;39.60;16.55;;;17.90;99.90;;;;;;5031450;28;20161;-66
2023/07/28 04:36:02;;;;;;;45.28;15.82;;;17.90;99.90;;;;;;5047153;28;20102;-66
2023/07/28 04:38:27;;;;;;;38.45;15.05;;;17.90;99.90;;;;;;5031643;28;20033;-66
2023/07/28 04:40:53;;;;;;;32.95;15.20;;;17.90;99.90;;;;;;5064103;28;20101;-64
2023/07/28 04:43:19;;;;;;;35.03;14.30;;;17.90;99.90;;;;;;5047595;28;20457;-64
2023/07/28 04:45:45;;;;;;;36.30;14.73;;;17.90;99.90;;;;;;5065234;28;20037;-65
2023/07/28 04:48:10;;;;;;;31.08;13.63;;;17.90;99.90;;;;;;5047935;28;20037;-66
2023/07/28 04:50:36;;;;;;;29.65;13.32;;;17.90;99.90;;;;;;5064568;28;20090;-63
2023/07/28 04:53:02;;;;;;;35.22;13.55;;;17.90;99.90;;;;;;5030801;28;20044;-67
2023/07/28 04:55:28;;;;;;;31.48;13.27;;;18.00;99.90;;;;;;5046077;28;20507;-65
2023/07/28 04:57:55;;;;;;;36.40;13.80;;;17.90;99.90;;;;;;5047500;28;20040;-64
2023/07/28 05:00:20;;;;;;;34.05;13.25;;;17.90;99.90;;;;;;5062886;28;20040;-62
2023/07/28 05:02:46;;;;;;;41.58;13.60;;;17.90;99.90;;;;;;5046640;28;20091;-66
2023/07/28 05:05:11;;;;;;;31.77;13.48;;;17.90;99.90;;;;;;5047017;28;20049;-65
2023/07/28 05:07:37;;;;;;;30.67;13.57;;;17.90;99.90;;;;;;5046925;28;20384;-64
2023/07/28 05:10:03;;;;;;;33.63;13.00;;;18.00;99.90;;;;;;5059965;28;20052;-66
2023/07/28 05:12:28;;;;;;;32.95;13.90;;;18.00;99.90;;;;;;5047343;28;20242;-65
2023/07/28 05:14:54;;;;;;;30.02;12.32;;;18.00;99.90;;;;;;5065278;28;20502;-66
2023/07/28 05:17:20;;;;;;;30.48;14.48;;;18.00;99.90;;;;;;5046441;28;20094;-68
2023/07/28 05:19:45;;;;;;;32.20;14.23;;;18.00;99.90;;;;;;5027121;28;20420;-70
2023/07/28 05:22:11;;;;;;;35.17;13.40;;;18.00;99.90;;;;;;5042071;28;20472;-68
2023/07/28 05:24:36;;;;;;;32.60;13.68;;;18.00;99.90;;;;;;5047311;28;20037;-67
2023/07/28 05:27:02;;;;;;;36.45;14.68;;;18.00;99.90;;;;;;5063039;28;20105;-68
2023/07/28 05:29:28;;;;;;;34.78;14.00;;;18.00;99.90;;;;;;5046517;28;20051;-65
2023/07/28 05:31:53;;;;;;;36.10;14.13;;;18.00;99.90;;;;;;5029860;28;20664;-66
2023/07/28 05:34:19;;;;;;;33.42;13.82;;;18.00;99.90;;;;;;5064871;28;20055;-67
2023/07/28 05:36:45;;;;;;;28.23;13.55;;;18.00;99.90;;;;;;5046237;28;20063;-66
2023/07/28 05:39:10;;;;;;;34.33;14.73;;;18.00;99.90;;;;;;5065267;28;20045;-67
2023/07/28 05:41:37;;;;;;;30.13;14.25;;;18.00;99.90;;;;;;5045188;28;20032;-67
2023/07/28 05:44:03;;;;;;;30.45;13.38;;;18.00;99.90;;;;;;5064986;28;20119;-66
2023/07/28 05:46:29;;;;;;;35.47;14.65;;;18.10;99.90;;;;;;5045907;28;20037;-67
2023/07/28 05:48:55;;;;;;;28.80;13.10;;;18.10;99.90;;;;;;5063980;28;20060;-69
2023/07/28 05:51:22;;;;;;;27.02;13.15;;;18.10;99.90;;;;;;5045240;28;20044;-67
2023/07/28 05:53:47;;;;;;;28.08;13.10;;;18.10;99.90;;;;;;5065082;28;20524;-67
2023/07/28 05:56:13;;;;;;;29.23;13.73;;;18.10;99.90;;;;;;5044574;28;20076;-67
2023/07/28 05:58:39;;;;;;;30.40;13.13;;;18.10;99.90;;;;;;5064937;28;20048;-70
2023/07/28 06:01:05;;;;;;;28.23;12.90;;;18.10;99.90;;;;;;5027017;28;20040;-69
2023/07/28 06:03:31;;;;;;;22.33;12.32;;;18.20;99.90;;;;;;5043596;28;20144;-69
2023/07/28 06:05:57;;;;;;;23.65;11.90;;;18.20;99.90;;;;;;5029279;28;20040;-65
2023/07/28 06:08:23;;;;;;;23.27;10.85;;;18.20;99.90;;;;;;5046841;28;20044;-69
2023/07/28 06:10:48;;;;;;;18.00;10.48;;;18.20;99.90;;;;;;5044782;28;20183;-67
2023/07/28 06:13:14;;;;;;;23.23;11.68;;;18.20;99.90;;;;;;5065212;28;20104;-69
2023/07/28 06:15:41;;;;;;;15.55;10.38;;;18.20;99.90;;;;;;5053977;28;20037;-69
2023/07/28 06:18:07;;;;;;;24.00;10.98;;;18.30;99.90;;;;;;5041339;28;20068;-69
2023/07/28 06:20:34;;;;;;;20.73;10.32;;;18.30;99.90;;;;;;5043639;28;20032;-67
2023/07/28 06:23:00;;;;;;;17.05;9.15;;;18.30;99.90;;;;;;5046178;28;20507;-68
2023/07/28 06:25:25;;;;;;;18.83;9.60;;;18.30;99.90;;;;;;5049781;28;20028;-68
2023/07/28 06:27:51;;;;;;;24.77;9.73;;;18.40;99.90;;;;;;5050930;28;20115;-67
2023/07/28 06:30:17;;;;;;;18.38;9.48;;;18.40;99.90;;;;;;5051173;28;20040;-66
2023/07/28 06:32:42;;;;;;;18.77;8.85;;;18.50;99.90;;;;;;5069531;28;20040;-69
2023/07/28 06:35:09;;;;;;;23.48;9.40;;;18.50;99.90;;;;;;5065177;28;20047;-67
2023/07/28 06:37:38;;;;;;;21.92;9.20;;;18.50;99.90;;;;;;5069364;28;20119;-65
2023/07/28 06:40:09;;;;;;;15.40;7.88;;;18.60;99.90;;;;;;5050601;28;20159;-66
2023/07/28 06:42:36;;;;;;;17.65;7.88;;;18.50;99.90;;;;;;5048953;28;20108;-68
2023/07/28 06:45:03;;;;;;;17.92;7.40;;;18.50;99.90;;;;;;5051032;28;20215;-67
2023/07/28 06:47:29;;;;;;;15.50;7.15;;;18.60;99.90;;;;;;5067637;28;20032;-66
2023/07/28 06:49:55;;;;;;;15.88;7.75;;;18.60;99.90;;;;;;5050791;28;20040;-70
2023/07/28 06:52:20;;;;;;;11.82;6.72;;;18.60;99.90;;;;;;5034281;28;20044;-65
2023/07/28 06:54:48;;;;;;;12.30;7.32;;;18.60;99.90;;;;;;5068590;28;20032;-65
2023/07/28 06:57:14;;;;;;;11.15;7.28;;;18.70;99.90;;;;;;5033657;28;20077;-66
2023/07/28 06:59:41;;;;;;;13.02;7.50;;;18.70;99.90;;;;;;5048513;28;20410;-64
2023/07/28 07:02:06;;;;;;;12.50;8.07;;;18.70;99.90;;;;;;5068304;28;20040;-69
2023/07/28 07:04:32;;;;;;;16.77;9.38;;;18.70;99.90;;;;;;5070154;28;20051;-67
2023/07/28 07:06:58;;;;;;;14.98;9.27;;;18.70;99.90;;;;;;5069365;28;20495;-67
2023/07/28 07:09:24;;;;;;;14.70;8.57;;;18.70;99.90;;;;;;5070213;28;20036;-67
2023/07/28 07:11:50;;;;;;;12.10;8.50;;;18.70;99.90;;;;;;5050686;28;20207;-70
2023/07/28 07:14:17;;;;;;;11.13;8.40;;;18.70;99.90;;;;;;5035295;28;20840;-67
2023/07/28 07:16:43;;;;;;;15.32;8.38;;;18.80;99.90;;;;;;5051988;28;20139;-65
2023/07/28 07:19:09;;;;;;;15.73;8.23;;;18.80;99.90;;;;;;5052471;28;20076;-70
2023/07/28 07:21:34;;;;;;;14.90;8.05;;;18.80;99.90;;;;;;5035421;28;20072;-67
2023/07/28 07:24:02;;;;;;;15.13;8.70;;;18.80;99.90;;;;;;5035710;28;20048;-69
2023/07/28 07:26:27;;;;;;;14.70;8.55;;;18.80;99.90;;;;;;5068403;28;20410;-67
2023/07/28 07:28:53;;;;;;;17.45;8.45;;;18.80;99.90;;;;;;5070260;28;20041;-66
2023/07/28 07:31:19;;;;;;;13.93;8.63;;;18.90;99.90;;;;;;5069399;28;20644;-68
2023/07/28 07:33:44;;;;;;;13.80;8.70;;;18.90;99.90;;;;;;5069709;28;21049;-67
2023/07/28 07:36:18;;;;;;;12.05;7.88;;;18.90;99.90;;;;;;5032263;28;20123;-67
2023/07/28 07:38:48;;;;;;;13.38;8.82;;;18.90;99.90;;;;;;5049222;28;20032;-65
2023/07/28 07:41:20;;;;;;;11.93;8.48;;;18.90;99.90;;;;;;5029582;28;20178;-66
2023/07/28 07:43:47;;;;;;;15.15;8.30;;;18.80;99.90;;;;;;5048411;28;20055;-67
2023/07/28 07:46:14;;;;;;;13.77;7.07;;;18.90;99.90;;;;;;5029161;28;20040;-67
2023/07/28 07:48:39;;;;;;;11.07;7.10;;;18.80;99.90;;;;;;5031501;28;20052;-68
2023/07/28 07:51:05;;;;;;;13.15;7.93;;;18.90;99.90;;;;;;5047751;28;20039;-66
2023/07/28 07:53:30;;;;;;;10.07;7.32;;;19.00;99.90;;;;;;5049005;28;20048;-66
2023/07/28 07:55:56;;;;;;;11.57;6.72;;;19.00;99.90;;;;;;5054822;28;20124;-68
2023/07/28 07:58:22;;;;;;;12.57;7.60;;;19.00;99.90;;;;;;5029376;28;20149;-63
2023/07/28 08:00:47;;;;;;;12.00;6.55;;;19.10;99.90;;;;;;5034572;28;20051;-67
2023/07/28 08:03:13;;;;;;;9.65;6.45;;;19.20;99.90;;;;;;5048252;28;20060;-67
2023/07/28 08:05:38;;;;;;;10.05;6.10;;;19.20;99.90;;;;;;5046347;28;20083;-66
2023/07/28 08:08:06;;;;;;;8.90;5.68;;;19.20;99.90;;;;;;5029513;28;20090;-67
2023/07/28 08:10:32;;;;;;;11.90;5.65;;;19.30;99.90;;;;;;5045218;28;20076;-65
2023/07/28 08:12:59;;;;;;;10.30;5.82;;;19.40;99.90;;;;;;5047392;28;20145;-65
2023/07/28 08:15:25;;;;;;;8.20;5.15;;;19.40;99.90;;;;;;5047773;28;20041;-66
2023/07/28 08:17:52;;;;;;;11.13;5.45;;;19.50;99.90;;;;;;5048435;28;20040;-66
2023/07/28 08:20:17;;;;;;;10.57;5.28;;;19.50;99.90;;;;;;5047781;28;20163;-69
2023/07/28 08:22:43;;;;;;;7.35;4.90;;;19.60;99.90;;;;;;5046920;28;20051;-67
2023/07/28 08:25:09;;;;;;;9.88;5.35;;;19.60;99.90;;;;;;5048118;28;20392;-65
2023/07/28 08:27:34;;;;;;;9.32;5.15;;;19.60;99.90;;;;;;5064034;28;20511;-67
2023/07/28 08:30:00;;;;;;;7.88;4.70;;;19.60;99.90;;;;;;5064706;28;20052;-66
2023/07/28 08:32:26;;;;;;;6.55;3.90;;;19.70;99.90;;;;;;5028170;28;20056;-66
2023/07/28 08:34:51;;;;;;;7.07;3.95;;;19.70;99.90;;;;;;5027836;28;20055;-69
2023/07/28 08:37:17;;;;;;;8.80;4.00;;;19.70;99.90;;;;;;5028466;28;20555;-67
2023/07/28 08:39:42;;;;;;;9.90;4.60;;;19.70;99.90;;;;;;5044668;28;20091;-65
2023/07/28 08:42:08;;;;;;;9.10;3.63;;;19.70;99.90;;;;;;5028100;28;20049;-66
2023/07/28 08:44:34;;;;;;;7.95;4.05;;;19.80;99.90;;;;;;5044765;28;20231;-66
2023/07/28 08:47:04;;;;;;;8.35;4.05;;;20.00;99.90;;;;;;5061691;28;20037;-67
2023/07/28 08:49:36;;;;;;;7.93;3.58;;;20.10;99.90;;;;;;5047463;28;20056;-67
2023/07/28 08:52:03;;;;;;;8.02;3.80;;;20.20;99.90;;;;;;5047174;28;20438;-64
2023/07/28 08:54:29;;;;;;;9.57;3.97;;;20.30;99.90;;;;;;5047277;28;20044;-66
2023/07/28 08:56:57;;;;;;;9.77;4.50;;;20.30;99.90;;;;;;5029066;28;20064;-67
2023/07/28 08:59:25;;;;;;;7.95;4.18;;;20.30;99.90;;;;;;5047260;28;20047;-64
2023/07/28 09:01:52;;;;;;;7.40;4.00;;;20.30;99.90;;;;;;5050391;28;20045;-67
2023/07/28 09:04:18;;;;;;;9.15;3.60;;;20.20;99.90;;;;;;5058602;28;20047;-68
2023/07/28 09:06:48;;;;;;;6.95;3.15;;;20.20;99.90;;;;;;5030219;28;20479;-66
2023/07/28 09:09:15;;;;;;;7.45;3.50;;;20.20;99.90;;;;;;5046912;28;20040;-67
2023/07/28 09:11:45;;;;;;;7.18;3.47;;;20.20;99.90;;;;;;5024866;28;20052;-67
2023/07/28 09:14:13;;;;;;;7.13;3.22;;;20.30;99.90;;;;;;5045512;28;20055;-65
2023/07/28 09:16:39;;;;;;;9.75;3.33;;;20.30;99.90;;;;;;5017795;28;20045;-64
2023/07/28 09:19:06;;;;;;;11.43;3.47;;;20.40;99.90;;;;;;5027077;28;20128;-67
2023/07/28 09:21:32;;;;;;;14.38;3.55;;;20.40;99.90;;;;;;5019165;28;20520;-66
2023/07/28 09:24:06;;;;;;;7.22;3.90;;;20.40;99.90;;;;;;5030591;28;20540;-66
2023/07/28 09:26:41;;;;;;;9.83;3.40;;;20.40;99.90;;;;;;5029228;28;20047;-69
2023/07/28 09:29:20;;;;;;;8.63;3.80;;;20.50;99.90;;;;;;5046865;28;20040;-66
2023/07/28 09:31:47;;;;;;;8.75;3.00;;;20.40;99.90;;;;;;5029109;28;20612;-67
2023/07/28 09:34:32;;;;;;;7.60;3.05;;;20.60;99.90;;;;;;5046575;28;20067;-67
2023/07/28 09:36:59;;;;;;;7.63;3.13;;;20.90;99.90;;;;;;5064141;28;20036;-66
2023/07/28 09:39:26;;;;;;;7.95;2.85;;;21.20;99.90;;;;;;5043851;28;20044;-70
2023/07/28 09:41:52;;;;;;;7.90;2.80;;;21.40;99.90;;;;;;5025339;28;20041;-66
2023/07/28 09:44:18;;;;;;;7.07;2.60;;;21.40;99.90;;;;;;5048879;28;20040;-67
2023/07/28 09:46:57;;;;;;;5.57;2.30;;;21.40;99.90;;;;;;5046299;28;20101;-65
2023/07/28 09:49:28;;;;;;;8.45;2.85;;;21.40;99.90;;;;;;5040467;28;20037;-65
2023/07/28 09:51:59;;;;;;;7.70;3.00;;;21.30;99.90;;;;;;5038670;28;20132;-66
2023/07/28 09:54:29;;;;;;;8.23;3.30;;;21.20;99.90;;;;;;5046260;28;20082;-67
2023/07/28 09:56:59;;;;;;;5.68;2.83;;;21.10;99.90;;;;;;5062541;28;20047;-69
2023/07/28 09:59:54;;;;;;;7.82;2.65;;;21.20;99.90;;;;;;5053050;28;20083;-68
2023/07/28 10:02:20;;;;;;;7.07;2.55;;;21.20;99.90;;;;;;5042920;28;20052;-66
2023/07/28 10:04:45;;;;;;;9.30;3.03;;;21.20;99.90;;;;;;5064312;28;20052;-67
2023/07/28 10:07:12;;;;;;;7.78;2.75;;;21.20;99.90;;;;;;5045807;28;20119;-67
2023/07/28 10:09:39;;;;;;;9.75;3.22;;;21.10;99.90;;;;;;5046356;28;20041;-66
2023/07/28 10:12:05;;;;;;;9.82;3.55;;;21.10;99.90;;;;;;5044796;28;20045;-64
2023/07/28 10:14:34;;;;;;;9.27;2.92;;;21.00;99.90;;;;;;5046218;28;20097;-67
2023/07/28 10:17:04;;;;;;;7.88;2.60;;;21.00;99.90;;;;;;5049451;28;20124;-68
2023/07/28 10:19:34;;;;;;;11.13;3.30;;;21.00;99.90;;;;;;5042804;28;20049;-65
2023/07/28 10:22:07;;;;;;;9.15;3.05;;;21.00;99.90;;;;;;5044516;28;20140;-68
2023/07/28 10:25:11;;;;;;;6.63;2.83;;;21.10;99.90;;;;;;5031849;28;20044;-67
2023/07/28 10:27:43;;;;;;;9.32;3.17;;;21.20;99.90;;;;;;4984731;28;20505;-67
2023/07/28 10:30:13;;;;;;;7.13;3.00;;;21.30;99.90;;;;;;4985298;28;20084;-66
2023/07/28 10:32:41;;;;;;;10.15;2.85;;;21.30;99.90;;;;;;5024435;28;20049;-66
2023/07/28 10:35:17;;;;;;;7.65;3.05;;;21.40;99.90;;;;;;5044212;28;20110;-67
2023/07/28 10:37:46;;;;;;;10.35;3.05;;;21.50;99.90;;;;;;5043593;28;20048;-67
2023/07/28 10:40:30;;;;;;;6.80;2.92;;;21.60;99.90;;;;;;5025319;28;20044;-65
2023/07/28 10:42:56;;;;;;;;;;;21.90;99.90;;;;;;5045495;28;20508;-67
2023/07/28 10:45:24;;;;;;;7.45;3.30;;;22.00;99.90;;;;;;5028889;28;20058;-68
2023/07/28 10:47:52;;;;;;;8.95;3.25;;;22.10;99.90;;;;;;5029831;28;20043;-68
2023/07/28 10:50:20;;;;;;;9.90;3.50;;;22.10;99.90;;;;;;5064900;28;20155;-69
2023/07/28 10:52:46;;;;;;;10.35;3.30;;;22.10;99.90;;;;;;5029092;28;20044;-67
2023/07/28 10:55:23;;;;;;;9.15;3.60;;;22.00;99.90;;;;;;5044905;28;20111;-66
2023/07/28 10:57:50;;;;;;;9.70;3.05;;;21.90;99.90;;;;;;5063498;28;20606;-68
2023/07/28 11:00:18;;;;;;;9.98;3.65;;;21.80;99.90;;;;;;5062944;28;20120;-71
2023/07/28 11:02:48;;;;;;;8.07;3.30;;;21.80;99.90;;;;;;5029510;28;20059;-69
2023/07/28 11:05:28;;;;;;;8.88;3.40;;;21.80;99.90;;;;;;5029311;28;20090;-67
2023/07/28 11:07:58;;;;;;;7.88;3.03;;;21.90;99.90;;;;;;5029067;28;20112;-69
2023/07/28 11:10:27;;;;;;;6.38;3.22;;;22.00;99.90;;;;;;5045219;28;20117;-73
2023/07/28 11:12:53;;;;;;;8.52;2.90;;;22.10;99.90;;;;;;5066962;28;20632;-67
2023/07/28 11:15:19;;;;;;;8.50;3.42;;;22.10;99.90;;;;;;5065871;28;20076;-67
2023/07/28 11:17:50;;;;;;;8.32;3.15;;;22.20;99.90;;;;;;5047845;28;20118;-65
2023/07/28 11:20:20;;;;;;;5.90;2.50;;;22.30;99.90;;;;;;5029378;28;20116;-63
2023/07/28 11:22:51;;;;;;;8.68;3.10;;;22.30;99.90;;;;;;5048351;28;20036;-65
2023/07/28 11:25:17;;;;;;;7.72;3.10;;;22.40;99.90;;;;;;5048605;28;20287;-66
2023/07/28 11:27:46;;;;;;;11.15;2.97;;;22.30;99.90;;;;;;5066515;28;20036;-63
2023/07/28 11:30:12;;;;;;;8.63;3.25;;;22.30;99.90;;;;;;5058030;28;20427;-69
2023/07/28 11:32:38;;;;;;;6.00;2.88;;;22.30;99.90;;;;;;5049807;28;20378;-65
2023/07/28 11:35:11;;;;;;;7.32;3.03;;;22.20;99.90;;;;;;5067243;28;20063;-65
2023/07/28 11:37:39;;;;;;;6.50;2.60;;;22.40;99.90;;;;;;5048601;28;20136;-64
2023/07/28 11:40:07;;;;;;;5.40;2.38;;;22.50;99.90;;;;;;5048094;28;20040;-64
2023/07/28 11:42:37;;;;;;;7.88;2.75;;;22.60;99.90;;;;;;5066233;28;20206;-70
2023/07/28 11:45:04;;;;;;;6.63;2.58;;;22.60;99.90;;;;;;5039091;28;20289;-66
2023/07/28 11:47:30;;;;;;;5.72;2.47;;;22.70;99.90;;;;;;5048410;28;20262;-64
2023/07/28 11:49:58;;;;;;;5.50;2.33;;;22.70;99.90;;;;;;5052530;28;20236;-65
2023/07/28 11:52:28;;;;;;;7.93;2.17;;;22.70;99.90;;;;;;5062449;28;20376;-65
2023/07/28 11:54:54;;;;;;;5.20;2.50;;;22.80;99.90;;;;;;5048513;28;20482;-65
2023/07/28 11:57:21;;;;;;;8.13;2.28;;;22.80;99.90;;;;;;5031246;28;20119;-66
2023/07/28 11:59:46;;;;;;;7.50;2.60;;;22.90;99.90;;;;;;5067340;28;20080;-63
2023/07/28 12:02:12;;;;;;;8.23;3.10;;;23.00;99.90;;;;;;5066604;28;20091;-63
2023/07/28 12:04:39;;;;;;;7.80;2.63;;;23.10;99.90;;;;;;5032419;28;20071;-65
2023/07/28 12:07:19;;;;;;;10.68;2.53;;;23.20;99.90;;;;;;5052459;28;20045;-68
2023/07/28 12:09:58;;;;;;;6.82;2.72;;;23.30;99.90;;;;;;5028832;28;20049;-65
2023/07/28 12:12:26;;;;;;;7.53;2.35;;;23.20;99.90;;;;;;5027357;28;20127;-65
2023/07/28 12:14:52;;;;;;;8.20;2.80;;;23.20;99.90;;;;;;5028749;28;20041;-64
2023/07/28 12:17:19;;;;;;;6.30;2.10;;;23.20;99.90;;;;;;5046034;28;20126;-65
2023/07/28 12:20:10;;;;;;;8.75;2.30;;;23.10;99.90;;;;;;5048178;28;20132;-68
2023/07/28 12:22:43;;;;;;;5.38;2.08;;;23.10;99.90;;;;;;5030785;28;20040;-68
2023/07/28 12:25:10;;;;;;;7.78;3.00;;;23.20;99.90;;;;;;5065730;28;20040;-68
2023/07/28 12:27:36;;;;;;;6.43;2.15;;;23.40;99.90;;;;;;5036340;28;20045;-66
2023/07/28 12:30:03;;;;;;;6.25;2.15;;;23.50;99.90;;;;;;5028134;28;20103;-69
2023/07/28 12:32:28;;;;;;;5.95;1.92;;;23.60;99.90;;;;;;5047340;28;20082;-65
2023/07/28 12:34:54;;;;;;;5.88;1.98;;;23.60;99.90;;;;;;5048403;28;20075;-64
2023/07/28 12:37:21;;;;;;;4.22;1.67;;;23.60;99.90;;;;;;5047514;28;20050;-66